Time;durP1;ratioP1;P1;durP2;ratioP2;P2;SDS_P1;SDS_P2;PMS_P1;PMS_P2;Temp;Humidity;BMP_temperature;BMP_pressure;BME280_temperature;BME280_humidity;BME280_pressure;Samples;Min_cycle;Max_cycle;Signal;HPM_P1;HPM_P2
2022/06/16 00:03:25;;;;;;;6.90;3.23;;;12.80;1.00;;;;;;8378852;28;20210;-67
2022/06/16 00:07:26;;;;;;;6.07;3.23;;;12.80;99.90;;;;;;8376135;28;20196;-66
2022/06/16 00:11:27;;;;;;;6.70;3.00;;;12.80;1.00;;;;;;8374977;28;20177;-67
2022/06/16 00:15:29;;;;;;;6.47;3.53;;;12.80;99.90;;;;;;8367560;28;20190;-67
2022/06/16 00:19:29;;;;;;;4.23;3.40;;;12.70;99.90;;;;;;8369543;28;20189;-70
2022/06/16 00:23:30;;;;;;;3.93;3.10;;;12.60;99.90;;;;;;8368227;28;20230;-67
2022/06/16 00:27:32;;;;;;;3.60;2.57;;;12.60;99.90;;;;;;8364029;28;20199;-67
2022/06/16 00:31:35;;;;;;;3.80;3.33;;;12.50;99.90;;;;;;8371336;28;20193;-67
2022/06/16 00:35:36;;;;;;;4.63;3.97;;;12.40;1.00;;;;;;8368975;28;20550;-67
2022/06/16 00:39:37;;;;;;;6.97;4.93;;;12.30;99.90;;;;;;8364547;28;20194;-67
2022/06/16 00:43:39;;;;;;;6.57;4.00;;;12.30;1.00;;;;;;8378218;28;20440;-66
2022/06/16 00:47:39;;;;;;;4.40;3.10;;;12.20;99.90;;;;;;8375298;28;20232;-67
2022/06/16 00:52:08;;;;;;;3.57;2.87;;;12.00;99.90;;;;;;8370647;28;20200;-67
2022/06/16 00:56:13;;;;;;;4.30;3.07;;;11.90;99.90;;;;;;8368934;28;20537;-67
2022/06/16 01:00:27;;;;;;;3.30;3.00;;;11.80;1.00;;;;;;8373999;28;20305;-67
2022/06/16 01:08:50;;;;;;;4.77;3.17;;;11.80;1.00;;;;;;8364402;28;20208;-67
2022/06/16 01:13:41;;;;;;;7.57;3.93;;;11.80;99.90;;;;;;8372815;28;20177;-67
2022/06/16 01:18:06;;;;;;;4.80;3.40;;;11.80;1.00;;;;;;8366091;28;20179;-65
2022/06/16 01:22:20;;;;;;;5.10;3.60;;;11.70;99.90;;;;;;8379940;28;20224;-66
2022/06/16 01:26:26;;;;;;;3.97;3.47;;;11.70;1.00;;;;;;8372352;28;20174;-67
2022/06/16 01:30:37;;;;;;;3.63;3.30;;;11.60;1.00;;;;;;8365266;28;20210;-70
2022/06/16 01:34:47;;;;;;;5.13;3.57;;;11.60;1.00;;;;;;8379028;28;20216;-67
2022/06/16 01:39:11;;;;;;;5.60;4.30;;;11.50;98.30;;;;;;8369450;28;20193;-66
2022/06/16 01:43:40;;;;;;;4.33;3.93;;;11.50;8.00;;;;;;8358634;28;20217;-66
2022/06/16 01:47:45;;;;;;;5.13;3.83;;;11.60;99.90;;;;;;8365666;28;20181;-69
2022/06/16 01:51:52;;;;;;;7.33;4.33;;;11.50;99.90;;;;;;8376271;28;20212;-70
2022/06/16 01:55:59;;;;;;;5.10;4.23;;;11.60;99.90;;;;;;8366941;28;20185;-67
2022/06/16 02:00:05;;;;;;;7.13;4.13;;;11.50;99.90;;;;;;8378207;28;20184;-68
2022/06/16 02:04:15;;;;;;;7.70;4.00;;;11.40;99.90;;;;;;8378485;28;20251;-66
2022/06/16 02:08:19;;;;;;;6.17;3.77;;;11.40;99.90;;;;;;8378490;28;20186;-67
2022/06/16 02:16:49;;;;;;;4.83;3.70;;;11.30;99.90;;;;;;8375078;28;20258;-67
2022/06/16 02:20:53;;;;;;;6.23;4.23;;;11.30;99.90;;;;;;8378820;28;20547;-67
2022/06/16 02:24:54;;;;;;;11.03;5.00;;;11.20;1.00;;;;;;8367565;28;20440;-66
2022/06/16 02:28:57;;;;;;;6.97;4.90;;;11.30;1.00;;;;;;8374134;28;20212;-69
2022/06/16 02:33:16;;;;;;;9.27;5.57;;;11.30;38.50;;;;;;8379146;28;20219;-68
2022/06/16 02:37:30;;;;;;;9.80;5.60;;;11.40;99.90;;;;;;8392856;28;20247;-68
2022/06/16 02:41:54;;;;;;;8.20;4.80;;;11.40;99.90;;;;;;8383489;28;20209;-67
2022/06/16 02:46:20;;;;;;;7.47;5.40;;;11.40;99.90;;;;;;8375302;28;20206;-68
2022/06/16 02:50:42;;;;;;;8.33;5.30;;;11.50;99.90;;;;;;8372581;28;20589;-66
2022/06/16 02:55:07;;;;;;;6.37;5.10;;;11.60;99.90;;;;;;8366946;28;20594;-68
2022/06/16 02:59:20;;;;;;;6.13;4.90;;;11.60;99.90;;;;;;8370449;28;20190;-66
2022/06/16 03:03:28;;;;;;;7.40;5.70;;;11.80;99.90;;;;;;8370094;28;20278;-65
2022/06/16 03:07:28;;;;;;;7.70;5.40;;;11.90;99.90;;;;;;8373432;28;20193;-64
2022/06/16 03:11:29;;;;;;;8.20;5.50;;;12.10;99.90;;;;;;8374436;28;20198;-65
2022/06/16 03:15:30;;;;;;;6.23;4.83;;;12.30;73.30;;;;;;8370972;28;20186;-65
2022/06/16 03:19:31;;;;;;;7.37;5.03;;;12.40;1.00;;;;;;8370175;28;20274;-62
2022/06/16 03:23:31;;;;;;;9.70;5.67;;;12.50;1.00;;;;;;8372259;28;20267;-63
2022/06/16 03:27:32;;;;;;;6.87;4.30;;;12.70;99.90;;;;;;8369283;28;20372;-64
2022/06/16 03:31:33;;;;;;;9.20;5.20;;;12.80;99.90;;;;;;8369837;28;20186;-63
2022/06/16 03:35:35;;;;;;;5.30;4.80;;;13.00;99.90;;;;;;8368663;28;20191;-66
2022/06/16 03:39:36;;;;;;;5.53;4.40;;;13.10;99.90;;;;;;8368699;28;20187;-64
2022/06/16 03:43:37;;;;;;;6.87;4.37;;;13.20;1.00;;;;;;8375269;28;20225;-63
2022/06/16 03:47:38;;;;;;;5.97;3.73;;;13.30;28.20;;;;;;8375661;28;20185;-66
2022/06/16 03:51:39;;;;;;;4.07;3.40;;;13.80;99.90;;;;;;8368942;28;20231;-65
2022/06/16 03:55:39;;;;;;;6.67;3.67;;;14.80;1.00;;;;;;8371423;28;20272;-64
2022/06/16 03:59:40;;;;;;;8.60;3.50;;;15.90;99.90;;;;;;8374054;28;20285;-64
2022/06/16 04:08:00;;;;;;;5.17;3.13;;;17.50;99.90;;;;;;8368666;28;20252;-64
2022/06/16 04:12:01;;;;;;;4.90;3.40;;;17.10;99.90;;;;;;8364713;28;20189;-71
2022/06/16 04:16:02;;;;;;;5.93;3.93;;;17.10;99.90;;;;;;8373559;28;20204;-65
2022/06/16 04:20:12;;;;;;;6.33;3.50;;;17.70;99.90;;;;;;8372363;28;20220;-66
2022/06/16 04:24:14;;;;;;;4.50;3.40;;;18.40;11.80;;;;;;8370159;28;20186;-65
2022/06/16 04:28:15;;;;;;;4.17;3.17;;;19.30;1.00;;;;;;8377728;28;20205;-64
2022/06/16 04:32:16;;;;;;;7.57;3.60;;;20.50;1.00;;;;;;8366123;28;20275;-62
2022/06/16 04:36:17;;;;;;;6.03;3.40;;;21.40;99.90;;;;;;8369966;28;20209;-62
2022/06/16 04:40:18;;;;;;;3.30;2.10;;;22.30;99.90;;;;;;8361392;28;20270;-62
2022/06/16 04:44:19;;;;;;;5.57;3.07;;;23.30;99.90;;;;;;8367976;28;20185;-62
2022/06/16 04:48:20;;;;;;;6.00;3.03;;;23.40;99.90;;;;;;8363686;28;20272;-61
2022/06/16 04:52:21;;;;;;;5.50;2.70;;;23.90;97.70;;;;;;8366863;28;20534;-64
2022/06/16 04:56:22;;;;;;;4.73;2.57;;;24.60;36.70;;;;;;8364638;28;20192;-61
2022/06/16 05:00:22;;;;;;;3.60;2.10;;;25.00;1.00;;;;;;8367927;28;20275;-62
2022/06/16 05:04:23;;;;;;;2.40;2.13;;;25.70;1.00;;;;;;8363904;28;20197;-63
2022/06/16 05:08:24;;;;;;;5.70;2.75;;;26.20;1.00;;;;;;8360622;28;20405;-62
2022/06/16 05:12:25;;;;;;;4.72;2.33;;;26.60;1.00;;;;;;8369750;28;20184;-61
2022/06/16 05:16:27;;;;;;;4.60;2.30;;;26.10;1.00;;;;;;8371532;28;20268;-64
2022/06/16 05:20:29;;;;;;;3.10;2.20;;;25.40;1.00;;;;;;8367948;28;20224;-62
2022/06/16 05:24:29;;;;;;;3.83;1.90;;;24.50;1.00;;;;;;8361313;28;20185;-66
2022/06/16 05:28:31;;;;;;;3.87;2.63;;;23.80;1.00;;;;;;8366924;28;20204;-62
2022/06/16 05:32:31;;;;;;;3.63;2.73;;;23.00;72.40;;;;;;8362420;28;20285;-62
2022/06/16 05:36:32;;;;;;;3.30;2.20;;;22.40;99.90;;;;;;8370212;28;20181;-63
2022/06/16 05:40:33;;;;;;;3.60;2.20;;;22.00;99.90;;;;;;8365583;28;20212;-61
2022/06/16 05:44:35;;;;;;;3.30;2.50;;;21.80;99.90;;;;;;8366806;28;20181;-63
2022/06/16 05:48:36;;;;;;;3.57;2.17;;;21.70;99.90;;;;;;8370336;28;20231;-63
2022/06/16 05:52:37;;;;;;;3.67;2.33;;;21.80;99.90;;;;;;8370203;28;20231;-63
2022/06/16 05:56:38;;;;;;;3.33;2.40;;;22.10;99.90;;;;;;8373200;28;20590;-65
2022/06/16 06:00:39;;;;;;;5.60;2.50;;;22.40;99.90;;;;;;8364174;28;20551;-61
2022/06/16 06:04:39;;;;;;;3.07;2.07;;;22.50;99.90;;;;;;8363789;28;20197;-62
2022/06/16 06:17:21;;;;;;;2.40;1.60;;;24.10;89.10;;;;;;8367905;28;20200;-63
2022/06/16 06:25:43;;;;;;;3.93;2.60;;;25.20;1.00;;;;;;8360468;28;20251;-66
2022/06/16 06:29:46;;;;;;;4.83;2.43;;;25.50;1.00;;;;;;8374238;28;20198;-62
2022/06/16 06:33:47;;;;;;;3.60;2.40;;;25.40;1.00;;;;;;8369287;28;20188;-66
2022/06/16 06:37:49;;;;;;;6.93;3.70;;;25.00;1.00;;;;;;8364855;28;20249;-64
2022/06/16 06:41:50;;;;;;;6.23;3.63;;;24.60;27.40;;;;;;8365290;28;20209;-65
2022/06/16 06:45:51;;;;;;;6.47;3.40;;;24.10;99.90;;;;;;8370927;28;20300;-60
2022/06/16 06:49:53;;;;;;;6.50;3.30;;;24.00;99.90;;;;;;8377204;28;20184;-62
2022/06/16 06:53:54;;;;;;;5.03;3.77;;;24.20;99.90;;;;;;8375703;28;20276;-62
2022/06/16 06:57:55;;;;;;;4.07;2.67;;;24.00;99.90;;;;;;8372530;28;20177;-65
2022/06/16 07:01:56;;;;;;;4.93;2.87;;;23.90;99.90;;;;;;8370919;28;20251;-64
2022/06/16 07:06:00;;;;;;;5.13;2.77;;;24.00;99.90;;;;;;8369291;28;20263;-59
2022/06/16 07:10:03;;;;;;;5.30;2.43;;;24.00;99.90;;;;;;8376655;28;20262;-67
2022/06/16 07:14:03;;;;;;;3.20;2.90;;;24.10;99.90;;;;;;8369236;28;20189;-62
2022/06/16 07:18:06;;;;;;;3.93;2.60;;;24.00;99.90;;;;;;8370524;28;20184;-59
2022/06/16 07:22:07;;;;;;;3.73;2.30;;;24.00;99.90;;;;;;8377807;28;20304;-64
2022/06/16 07:26:09;;;;;;;2.47;2.27;;;24.20;99.90;;;;;;8368481;28;20182;-67
2022/06/16 07:30:15;;;;;;;3.63;2.30;;;24.50;87.70;;;;;;8365102;28;20202;-65
2022/06/16 07:34:16;;;;;;;5.17;2.27;;;24.70;56.40;;;;;;8370820;28;20186;-64
2022/06/16 07:38:17;;;;;;;3.03;2.37;;;25.10;27.20;;;;;;8374063;28;20219;-62
2022/06/16 07:42:17;;;;;;;3.50;2.10;;;25.00;5.30;;;;;;8370685;28;20293;-65
2022/06/16 07:46:18;;;;;;;2.30;2.10;;;25.30;9.20;;;;;;8367994;28;20186;-64
2022/06/16 07:50:20;;;;;;;3.73;2.63;;;25.80;1.00;;;;;;8371484;28;20317;-62
2022/06/16 07:54:20;;;;;;;3.33;2.07;;;26.00;1.00;;;;;;8367010;28;20185;-65
2022/06/16 07:58:23;;;;;;;3.10;2.13;;;26.00;1.00;;;;;;8367654;28;20192;-65
2022/06/16 08:02:26;;;;;;;4.27;2.23;;;26.00;1.00;;;;;;8364198;28;20209;-61
2022/06/16 08:06:27;;;;;;;3.40;2.07;;;25.60;1.00;;;;;;8367698;28;20185;-60
2022/06/16 08:10:34;;;;;;;3.00;2.40;;;25.40;1.00;;;;;;8369121;28;20268;-66
2022/06/16 08:14:39;;;;;;;5.03;2.50;;;25.20;1.00;;;;;;8369684;28;20219;-60
2022/06/16 08:18:39;;;;;;;3.47;2.00;;;25.50;1.00;;;;;;8372169;28;20193;-60
2022/06/16 08:22:40;;;;;;;3.17;2.87;;;25.60;1.00;;;;;;8368647;28;20217;-62
2022/06/16 08:26:42;;;;;;;2.73;2.30;;;25.90;1.00;;;;;;8364299;28;20200;-61
2022/06/16 08:30:46;;;;;;;4.23;1.90;;;26.00;1.00;;;;;;8370594;28;20174;-61
2022/06/16 08:34:48;;;;;;;3.75;1.90;;;26.20;1.00;;;;;;8370351;28;20190;-64
2022/06/16 08:38:49;;;;;;;4.70;2.27;;;26.00;1.00;;;;;;8366155;28;20216;-62
2022/06/16 08:43:01;;;;;;;6.43;2.23;;;25.90;1.00;;;;;;8365668;28;20216;-63
2022/06/16 08:47:15;;;;;;;4.38;2.28;;;26.10;1.00;;;;;;8365517;28;20224;-66
2022/06/16 08:51:22;;;;;;;3.92;1.98;;;26.30;1.00;;;;;;8367044;28;20205;-64
2022/06/16 08:55:55;;;;;;;3.85;2.15;;;26.50;1.00;;;;;;8367598;28;20215;-61
2022/06/16 09:00:19;;;;;;;2.70;2.10;;;26.80;1.00;;;;;;8364729;28;20706;-64
2022/06/16 09:04:42;;;;;;;2.72;1.80;;;27.40;1.00;;;;;;8376825;28;20253;-61
2022/06/16 09:08:57;;;;;;;2.50;2.30;;;27.80;1.00;;;;;;8366700;28;20178;-62
2022/06/16 09:13:32;;;;;;;3.28;1.85;;;27.90;1.00;;;;;;8368639;28;20185;-61
2022/06/16 09:17:58;;;;;;;3.95;1.60;;;28.10;1.00;;;;;;8363317;28;20181;-62
2022/06/16 09:22:09;;;;;;;3.83;1.75;;;28.50;1.00;;;;;;8368830;28;20194;-60
2022/06/16 09:26:20;;;;;;;3.83;1.88;;;28.90;1.00;;;;;;8371471;28;20584;-61
2022/06/16 09:30:28;;;;;;;5.30;2.13;;;28.90;1.00;;;;;;8364585;28;20201;-64
2022/06/16 09:34:38;;;;;;;4.45;1.60;;;29.10;1.00;;;;;;8366405;28;20186;-61
2022/06/16 09:38:43;;;;;;;2.08;1.50;;;29.00;1.00;;;;;;8366758;28;20239;-62
2022/06/16 09:42:56;;;;;;;2.03;1.30;;;28.80;1.00;;;;;;8368580;28;20212;-65
2022/06/16 09:47:07;;;;;;;3.70;1.40;;;28.90;1.00;;;;;;8371383;28;20181;-61
2022/06/16 09:51:22;;;;;;;2.55;1.70;;;29.00;1.00;;;;;;8364763;28;20182;-61
2022/06/16 09:55:35;;;;;;;4.53;1.70;;;29.10;1.00;;;;;;8359370;28;20186;-65
2022/06/16 09:59:59;;;;;;;2.85;1.90;;;29.00;1.00;;;;;;8366855;28;20224;-63
2022/06/16 10:04:06;;;;;;;3.67;1.48;;;28.50;1.00;;;;;;8366361;28;20212;-59
2022/06/16 10:08:29;;;;;;;2.75;1.98;;;27.70;1.00;;;;;;8362944;28;20181;-61
2022/06/16 10:12:38;;;;;;;4.20;2.10;;;27.80;1.00;;;;;;8364992;28;20186;-61
2022/06/16 10:16:54;;;;;;;2.80;1.95;;;28.00;1.00;;;;;;8359686;28;20209;-60
2022/06/16 10:20:55;;;;;;;3.55;2.03;;;28.50;1.00;;;;;;8373096;28;20349;-62
2022/06/16 10:25:11;;;;;;;4.25;2.15;;;28.80;1.00;;;;;;8375015;28;20492;-62
2022/06/16 10:29:12;;;;;;;6.38;2.22;;;29.00;1.00;;;;;;8374360;28;20201;-63
2022/06/16 10:33:20;;;;;;;3.90;2.22;;;29.00;1.00;;;;;;8367806;28;20212;-62
2022/06/16 10:37:29;;;;;;;3.90;2.33;;;29.00;1.00;;;;;;8372146;28;20185;-59
2022/06/16 10:41:34;;;;;;;5.93;2.17;;;29.10;1.00;;;;;;8374514;28;20315;-61
2022/06/16 10:45:37;;;;;;;5.40;2.05;;;29.20;1.00;;;;;;8363758;28;20205;-60
2022/06/16 10:49:40;;;;;;;2.40;2.13;;;29.60;1.00;;;;;;8374147;28;20303;-62
2022/06/16 10:54:00;;;;;;;4.22;2.45;;;29.90;1.00;;;;;;8369038;28;20238;-62
2022/06/16 10:58:06;;;;;;;3.38;2.42;;;30.00;1.00;;;;;;8372407;28;20207;-59
2022/06/16 11:02:22;;;;;;;3.33;2.00;;;30.30;1.00;;;;;;8369153;28;20224;-62
2022/06/16 11:06:24;;;;;;;2.28;2.08;;;30.50;1.00;;;;;;8381162;28;20269;-64
2022/06/16 11:10:34;;;;;;;3.72;2.00;;;30.50;1.00;;;;;;8372292;28;20185;-60
2022/06/16 11:14:44;;;;;;;5.60;2.17;;;30.80;1.00;;;;;;8366737;28;20566;-61
2022/06/16 11:18:45;;;;;;;3.08;1.80;;;31.00;1.00;;;;;;8370661;28;20236;-61
2022/06/16 11:22:50;;;;;;;4.93;2.20;;;31.30;1.00;;;;;;8374787;28;20237;-60
2022/06/16 11:27:02;;;;;;;3.33;2.08;;;30.70;1.00;;;;;;8366797;28;20185;-60
2022/06/16 11:31:06;;;;;;;3.88;1.83;;;30.50;1.00;;;;;;8365219;28;20256;-61
2022/06/16 11:35:11;;;;;;;3.28;1.85;;;30.70;1.00;;;;;;8369865;28;20209;-63
2022/06/16 11:39:24;;;;;;;2.95;2.10;;;30.50;1.00;;;;;;8365010;28;20224;-61
2022/06/16 11:43:33;;;;;;;2.80;2.00;;;29.70;1.00;;;;;;8379155;28;20299;-62
2022/06/16 11:47:51;;;;;;;1.95;1.67;;;29.70;1.00;;;;;;8369556;28;20196;-59
2022/06/16 11:52:03;;;;;;;2.65;1.67;;;29.90;1.00;;;;;;8376210;28;20220;-60
2022/06/16 11:56:09;;;;;;;2.25;1.85;;;30.00;1.00;;;;;;8366414;28;20188;-60
2022/06/16 12:00:16;;;;;;;2.13;1.60;;;30.40;1.00;;;;;;8363625;28;20181;-60
2022/06/16 12:04:38;;;;;;;2.83;1.60;;;30.20;1.00;;;;;;8369472;28;20251;-63
2022/06/16 12:08:44;;;;;;;2.83;1.65;;;30.30;1.00;;;;;;8365839;28;20188;-59
2022/06/16 12:12:57;;;;;;;1.92;1.65;;;30.40;1.00;;;;;;8368083;28;20185;-60
2022/06/16 12:17:05;;;;;;;4.35;2.20;;;29.70;1.00;;;;;;8367732;28;20263;-59
2022/06/16 12:21:35;;;;;;;4.15;1.90;;;29.50;1.00;;;;;;8368325;28;20289;-62
2022/06/16 12:25:47;;;;;;;4.63;2.30;;;28.60;1.00;;;;;;8362648;28;20212;-60
2022/06/16 12:29:57;;;;;;;5.03;2.40;;;28.10;1.00;;;;;;8371304;28;20248;-63
2022/06/16 12:34:05;;;;;;;3.75;2.30;;;27.50;1.00;;;;;;8365003;28;20186;-63
2022/06/16 12:38:28;;;;;;;2.95;2.33;;;26.90;1.00;;;;;;8365242;28;20277;-61
2022/06/16 12:42:46;;;;;;;3.17;2.28;;;26.60;1.00;;;;;;8367367;28;20251;-62
2022/06/16 12:46:54;;;;;;;6.10;2.60;;;26.70;1.00;;;;;;8365356;28;20185;-60
2022/06/16 12:50:59;;;;;;;3.55;2.33;;;26.90;1.00;;;;;;8361707;28;20185;-61
2022/06/16 12:55:11;;;;;;;3.22;2.60;;;27.00;23.20;;;;;;8360234;28;20190;-64
2022/06/16 12:59:44;;;;;;;4.30;2.60;;;26.90;99.90;;;;;;8365603;28;20224;-62
2022/06/16 13:04:10;;;;;;;4.95;2.53;;;26.30;1.00;;;;;;8363669;28;20262;-58
2022/06/16 13:08:13;;;;;;;3.03;2.17;;;26.00;1.00;;;;;;8371576;28;20186;-60
2022/06/16 13:12:22;;;;;;;3.47;2.37;;;25.60;1.00;;;;;;8363635;28;20196;-60
2022/06/16 13:16:27;;;;;;;2.67;2.40;;;25.80;1.00;;;;;;8369941;28;20186;-65
2022/06/16 13:20:31;;;;;;;2.85;2.08;;;26.30;1.00;;;;;;8371778;28;20194;-62
2022/06/16 13:24:42;;;;;;;4.60;2.30;;;27.20;1.00;;;;;;8369657;28;20437;-61
2022/06/16 13:29:15;;;;;;;5.70;2.40;;;28.20;1.00;;;;;;8361421;28;20210;-62
2022/06/16 13:33:30;;;;;;;3.03;2.17;;;29.00;1.00;;;;;;8360472;28;20204;-64
2022/06/16 13:38:11;;;;;;;4.70;1.73;;;29.70;1.00;;;;;;8362384;28;20181;-61
2022/06/16 13:42:50;;;;;;;4.28;2.50;;;29.60;1.00;;;;;;8369256;28;20206;-62
2022/06/16 13:46:54;;;;;;;4.47;1.90;;;28.70;1.00;;;;;;8357872;28;20281;-59
2022/06/16 13:51:02;;;;;;;2.80;1.90;;;27.60;1.00;;;;;;8368768;28;20212;-60
2022/06/16 13:55:30;;;;;;;3.10;2.00;;;27.20;1.00;;;;;;8370045;28;20240;-64
2022/06/16 13:59:38;;;;;;;3.75;1.98;;;27.10;1.00;;;;;;8372023;28;20173;-59
2022/06/16 14:04:01;;;;;;;4.43;2.20;;;27.20;1.00;;;;;;8370113;28;20223;-64
2022/06/16 14:08:12;;;;;;;3.13;2.83;;;27.10;1.00;;;;;;8364761;28;20182;-65
2022/06/16 14:12:20;;;;;;;4.90;2.08;;;27.10;1.00;;;;;;8370721;28;20193;-65
2022/06/16 14:16:22;;;;;;;3.63;1.88;;;26.80;1.00;;;;;;8367904;28;20878;-62
2022/06/16 14:20:32;;;;;;;6.35;2.38;;;26.80;1.00;;;;;;8371576;28;20170;-63
2022/06/16 14:25:11;;;;;;;4.30;2.23;;;26.60;1.00;;;;;;8373382;28;20184;-61
2022/06/16 14:29:19;;;;;;;2.10;1.90;;;26.10;1.00;;;;;;8370739;28;20213;-63
2022/06/16 14:33:35;;;;;;;2.50;1.90;;;25.90;1.00;;;;;;8375958;28;20181;-61
2022/06/16 14:37:52;;;;;;;2.80;2.27;;;25.90;1.00;;;;;;8371457;28;20180;-60
2022/06/16 14:41:56;;;;;;;5.17;2.20;;;26.00;1.00;;;;;;8369032;28;20229;-62
2022/06/16 14:46:11;;;;;;;4.03;2.00;;;26.20;1.00;;;;;;8372747;28;20174;-64
2022/06/16 14:50:21;;;;;;;3.53;1.90;;;26.40;1.00;;;;;;8373120;28;20623;-63
2022/06/16 14:54:27;;;;;;;4.47;2.20;;;26.50;1.00;;;;;;8370341;28;20447;-65
2022/06/16 14:58:41;;;;;;;3.53;2.17;;;26.60;1.00;;;;;;8373990;28;20327;-63
2022/06/16 15:02:42;;;;;;;4.33;2.00;;;26.40;1.00;;;;;;8378098;28;20210;-63
2022/06/16 15:06:46;;;;;;;2.17;1.98;;;26.40;1.00;;;;;;8368691;28;20185;-63
2022/06/16 15:10:47;;;;;;;4.85;1.70;;;26.70;1.00;;;;;;8370219;28;20181;-64
2022/06/16 15:14:49;;;;;;;2.88;2.03;;;27.20;1.00;;;;;;8370093;28;20228;-63
2022/06/16 15:18:49;;;;;;;2.85;2.17;;;27.50;1.00;;;;;;8367719;28;20210;-64
2022/06/16 15:22:54;;;;;;;3.10;1.85;;;27.10;1.00;;;;;;8373974;28;20225;-61
2022/06/16 15:26:58;;;;;;;2.53;1.90;;;26.90;1.00;;;;;;8369871;28;20300;-64
2022/06/16 15:31:13;;;;;;;5.22;2.25;;;26.80;1.00;;;;;;8366920;28;20181;-61
2022/06/16 15:39:48;;;;;;;2.77;2.00;;;26.50;1.00;;;;;;8370241;28;20303;-67
2022/06/16 15:43:51;;;;;;;2.37;1.60;;;26.50;1.00;;;;;;8372501;28;20209;-68
2022/06/16 15:47:52;;;;;;;3.77;1.57;;;26.80;1.00;;;;;;8370769;28;20177;-68
2022/06/16 15:51:55;;;;;;;2.50;1.50;;;26.70;1.00;;;;;;8369948;28;20190;-66
2022/06/16 15:55:55;;;;;;;2.43;1.77;;;26.40;1.00;;;;;;8365770;28;20191;-64
2022/06/16 16:00:00;;;;;;;4.50;1.57;;;26.20;1.00;;;;;;8364703;28;20201;-71
2022/06/16 16:04:03;;;;;;;3.03;2.20;;;26.00;1.00;;;;;;8363762;28;20201;-64
2022/06/16 16:08:08;;;;;;;4.33;1.90;;;25.90;1.00;;;;;;8370882;28;20249;-69
2022/06/16 16:12:21;;;;;;;4.23;1.87;;;25.80;1.00;;;;;;8369254;28;20189;-66
2022/06/16 16:16:22;;;;;;;4.53;1.83;;;25.60;1.00;;;;;;8376858;28;20463;-67
2022/06/16 16:20:23;;;;;;;2.73;1.70;;;25.70;1.00;;;;;;8375956;28;20264;-70
2022/06/16 16:24:39;;;;;;;3.30;1.90;;;25.80;1.00;;;;;;8373672;28;20227;-68
2022/06/16 16:28:48;;;;;;;3.67;1.83;;;26.00;1.00;;;;;;8363701;28;20569;-67
2022/06/16 16:32:49;;;;;;;2.47;1.70;;;26.00;1.00;;;;;;8370690;28;20186;-69
2022/06/16 16:37:00;;;;;;;2.70;2.30;;;25.90;1.00;;;;;;8367059;28;20189;-65
2022/06/16 16:45:49;;;;;;;4.43;2.30;;;25.70;1.00;;;;;;8367202;28;20197;-66
2022/06/16 16:49:52;;;;;;;5.23;1.80;;;25.50;1.00;;;;;;8371915;28;20181;-70
2022/06/16 16:53:58;;;;;;;4.90;1.70;;;25.20;1.00;;;;;;8373964;28;20573;-66
2022/06/16 16:58:02;;;;;;;2.80;1.87;;;25.20;1.00;;;;;;8367116;28;20189;-63
2022/06/16 17:02:03;;;;;;;2.80;1.80;;;25.10;1.00;;;;;;8369794;28;20206;-71
2022/06/16 17:06:05;;;;;;;3.67;1.90;;;25.10;1.00;;;;;;8365450;28;20182;-66
2022/06/16 17:10:15;;;;;;;4.03;2.57;;;25.30;1.00;;;;;;8367681;28;20289;-65
2022/06/16 17:14:16;;;;;;;5.03;1.90;;;25.50;1.00;;;;;;8370229;28;20185;-71
2022/06/16 17:18:17;;;;;;;4.47;1.87;;;26.10;1.00;;;;;;8366323;28;20277;-67
2022/06/16 17:22:18;;;;;;;3.47;1.70;;;26.90;1.00;;;;;;8365979;28;20201;-68
2022/06/16 17:26:21;;;;;;;3.53;2.00;;;26.40;1.00;;;;;;8368802;28;20240;-66
2022/06/16 17:30:23;;;;;;;3.23;1.87;;;25.60;1.00;;;;;;8370383;28;20209;-64
2022/06/16 17:34:33;;;;;;;4.83;2.50;;;25.00;1.00;;;;;;8369335;28;20186;-68
2022/06/16 17:38:39;;;;;;;3.87;2.43;;;24.50;1.00;;;;;;8374644;28;20196;-69
2022/06/16 17:42:40;;;;;;;3.77;1.70;;;24.20;1.00;;;;;;8365178;28;20231;-67
2022/06/16 17:46:41;;;;;;;2.93;2.00;;;24.00;1.00;;;;;;8365008;28;20296;-66
2022/06/16 17:50:42;;;;;;;4.40;2.33;;;23.80;1.00;;;;;;8367608;28;20174;-64
2022/06/16 18:03:34;;;;;;;5.43;1.97;;;24.40;1.00;;;;;;8361608;28;20551;-67
2022/06/16 18:07:37;;;;;;;2.87;1.80;;;25.30;1.00;;;;;;8369401;28;20188;-70
2022/06/16 18:11:37;;;;;;;5.83;2.00;;;25.80;1.00;;;;;;8368120;28;20271;-67
2022/06/16 18:15:38;;;;;;;3.97;1.80;;;25.60;1.00;;;;;;8373547;28;20303;-69
2022/06/16 18:19:39;;;;;;;3.77;1.70;;;25.60;1.00;;;;;;8365311;28;20181;-73
2022/06/16 18:23:40;;;;;;;6.50;2.07;;;25.70;1.00;;;;;;8366276;28;20315;-68
2022/06/16 18:27:40;;;;;;;4.37;2.03;;;25.50;1.00;;;;;;8366590;28;20246;-67
2022/06/16 18:31:43;;;;;;;4.53;1.87;;;25.40;1.00;;;;;;8375883;28;20195;-68
2022/06/16 18:35:44;;;;;;;2.70;1.73;;;24.80;1.00;;;;;;8363760;28;20193;-68
2022/06/16 18:39:45;;;;;;;3.87;2.20;;;24.70;1.00;;;;;;8369085;28;20456;-68
2022/06/16 18:43:49;;;;;;;5.77;1.90;;;24.70;1.00;;;;;;8381674;28;20300;-71
2022/06/16 18:47:50;;;;;;;4.73;2.10;;;24.50;1.00;;;;;;8378583;28;20182;-70
2022/06/16 18:51:51;;;;;;;5.30;1.93;;;24.30;1.00;;;;;;8370294;28;20731;-66
2022/06/16 18:55:53;;;;;;;3.97;1.80;;;24.10;1.00;;;;;;8360795;28;20197;-68
2022/06/16 18:59:55;;;;;;;3.13;2.00;;;23.70;1.00;;;;;;8376628;28;20181;-70
2022/06/16 19:03:55;;;;;;;5.63;2.10;;;22.80;1.00;;;;;;8370744;28;20216;-69
2022/06/16 19:07:56;;;;;;;2.47;2.00;;;22.20;1.00;;;;;;8365673;28;20256;-69
2022/06/16 19:16:16;;;;;;;2.30;1.73;;;21.30;1.00;;;;;;8366704;28;20280;-70
2022/06/16 19:20:28;;;;;;;6.33;2.57;;;21.00;1.00;;;;;;8377853;28;20185;-67
2022/06/16 19:24:29;;;;;;;3.97;2.17;;;20.80;1.00;;;;;;8369123;28;20205;-67
2022/06/16 19:28:30;;;;;;;3.30;2.40;;;20.60;1.00;;;;;;8374226;28;20201;-69
2022/06/16 19:32:31;;;;;;;4.33;1.90;;;20.30;1.00;;;;;;8384682;28;20178;-69
2022/06/16 19:36:35;;;;;;;3.90;2.47;;;20.10;1.00;;;;;;8377181;28;20190;-67
2022/06/16 19:40:36;;;;;;;7.83;3.20;;;19.90;15.10;;;;;;8367427;28;20182;-67
2022/06/16 19:53:18;;;;;;;3.83;2.10;;;19.40;75.90;;;;;;8366826;28;20227;-67
2022/06/16 19:57:19;;;;;;;3.57;2.00;;;19.20;99.90;;;;;;8367352;28;20181;-66
2022/06/16 20:01:21;;;;;;;2.97;1.87;;;19.00;99.90;;;;;;8369808;28;20229;-68
2022/06/16 20:05:24;;;;;;;4.33;1.80;;;18.90;99.90;;;;;;8369293;28;20256;-67
2022/06/16 20:09:25;;;;;;;3.70;1.90;;;18.90;99.90;;;;;;8375811;28;20205;-66
2022/06/16 20:13:28;;;;;;;3.43;2.20;;;18.80;99.90;;;;;;8367690;28;20209;-65
2022/06/16 20:17:30;;;;;;;3.50;2.37;;;18.60;99.90;;;;;;8368280;28;20232;-66
2022/06/16 20:21:33;;;;;;;7.00;2.20;;;18.60;99.90;;;;;;8371430;28;20256;-66
2022/06/16 20:25:35;;;;;;;3.50;1.80;;;18.40;99.90;;;;;;8362693;28;20231;-67
2022/06/16 20:29:37;;;;;;;3.87;2.30;;;18.20;99.90;;;;;;8365917;28;20197;-68
2022/06/16 20:33:37;;;;;;;2.83;2.10;;;18.00;99.90;;;;;;8365301;28;20193;-66
2022/06/16 20:37:38;;;;;;;2.30;1.90;;;17.90;99.90;;;;;;8369884;28;20190;-67
2022/06/16 20:46:01;;;;;;;2.77;2.37;;;17.60;99.90;;;;;;8365141;28;20573;-66
2022/06/16 20:50:05;;;;;;;3.93;1.97;;;17.40;99.90;;;;;;8363855;28;20200;-67
2022/06/16 20:54:09;;;;;;;5.60;2.10;;;17.30;99.90;;;;;;8362496;28;20200;-68
2022/06/16 21:02:30;;;;;;;4.00;2.10;;;17.10;1.00;;;;;;8368464;28;20224;-67
2022/06/16 21:06:31;;;;;;;2.50;1.80;;;17.00;1.00;;;;;;8369646;28;20186;-66
2022/06/16 21:10:32;;;;;;;1.83;1.50;;;17.00;1.00;;;;;;8360227;28;20193;-66
2022/06/16 21:14:34;;;;;;;4.40;1.90;;;16.90;1.00;;;;;;8368056;28;20405;-67
2022/06/16 21:18:36;;;;;;;2.00;1.40;;;16.80;1.00;;;;;;8368758;28;20212;-67
2022/06/16 21:22:40;;;;;;;3.33;1.57;;;16.70;1.00;;;;;;8370907;28;20273;-68
2022/06/16 21:26:41;;;;;;;2.50;1.70;;;16.50;1.00;;;;;;8368063;28;20647;-67
2022/06/16 21:30:43;;;;;;;1.87;1.60;;;16.40;1.00;;;;;;8367041;28;20189;-67
2022/06/16 21:34:47;;;;;;;1.57;1.37;;;16.30;1.00;;;;;;8369671;28;20185;-67
2022/06/16 21:38:48;;;;;;;1.50;1.40;;;16.10;1.00;;;;;;8380928;28;20190;-67
2022/06/16 21:42:48;;;;;;;2.40;1.60;;;15.80;1.00;;;;;;8366533;28;20208;-66
2022/06/16 21:46:49;;;;;;;1.93;1.57;;;15.60;28.40;;;;;;8362519;28;20217;-67
2022/06/16 21:51:08;;;;;;;2.37;1.60;;;15.40;92.60;;;;;;8360376;28;20263;-67
2022/06/16 21:55:19;;;;;;;2.60;1.90;;;15.20;99.90;;;;;;8367201;28;20181;-67
2022/06/16 21:59:19;;;;;;;2.70;1.50;;;15.00;99.90;;;;;;8366245;28;20187;-67
2022/06/16 22:03:24;;;;;;;1.67;1.57;;;14.80;99.90;;;;;;8364805;28;20239;-66
2022/06/16 22:07:26;;;;;;;3.30;1.80;;;14.70;99.90;;;;;;8363228;28;20186;-67
2022/06/16 22:15:48;;;;;;;1.67;1.57;;;14.40;99.90;;;;;;8373697;28;20231;-67
2022/06/16 22:19:52;;;;;;;1.70;1.60;;;14.40;99.90;;;;;;8370635;28;20190;-67
2022/06/16 22:23:53;;;;;;;2.87;1.97;;;14.40;99.90;;;;;;8371789;28;20231;-67
2022/06/16 22:28:03;;;;;;;2.37;1.83;;;14.50;99.90;;;;;;8371066;28;20266;-67
2022/06/16 22:32:05;;;;;;;2.40;1.87;;;14.60;99.90;;;;;;8366940;28;20269;-67
2022/06/16 22:36:06;;;;;;;3.00;1.60;;;14.60;99.90;;;;;;8368819;28;20232;-67
2022/06/16 22:40:26;;;;;;;1.87;1.57;;;14.70;99.90;;;;;;8373040;28;20189;-67
2022/06/16 22:44:27;;;;;;;3.27;2.27;;;14.80;1.00;;;;;;8373629;28;20209;-67